createdAt,value
2018-04-16T00:01:55.385Z,93.30
2018-04-16T00:04:22.841Z,93.30
2018-04-16T00:06:50.288Z,93.30
2018-04-16T00:09:17.752Z,93.40
2018-04-16T00:11:45.191Z,93.30
2018-04-16T00:14:13.398Z,93.40
2018-04-16T00:16:40.858Z,93.40
2018-04-16T00:19:08.330Z,93.40
2018-04-16T00:21:35.765Z,93.50
2018-04-16T00:24:03.243Z,93.40
2018-04-16T00:26:30.700Z,93.40
2018-04-16T00:28:58.156Z,93.40
2018-04-16T00:31:31.402Z,93.40
2018-04-16T00:34:04.562Z,93.50
2018-04-16T00:36:38.428Z,93.50
2018-04-16T00:39:11.581Z,93.50
2018-04-16T00:41:44.720Z,93.50
2018-04-16T00:44:17.914Z,93.60
2018-04-16T00:46:51.000Z,93.60
2018-04-16T00:49:23.983Z,93.60
2018-04-16T00:51:57.165Z,93.50
2018-04-16T00:54:30.213Z,93.50
2018-04-16T00:57:03.518Z,93.50
2018-04-16T00:59:36.702Z,93.60
2018-04-16T01:02:09.920Z,93.70
2018-04-16T01:04:42.949Z,93.70
2018-04-16T01:07:17.012Z,93.80
2018-04-16T01:09:50.165Z,93.80
2018-04-16T01:12:23.277Z,93.90
2018-04-16T01:14:56.486Z,93.80
2018-04-16T01:17:29.752Z,93.90
2018-04-16T01:20:02.883Z,94.00
2018-04-16T01:22:36.006Z,94.10
2018-04-16T01:25:09.920Z,93.90
2018-04-16T01:30:44.570Z,93.90
2018-04-16T01:33:17.798Z,93.90
2018-04-16T01:35:50.861Z,93.90
2018-04-16T01:38:24.017Z,93.90
2018-04-16T01:40:57.868Z,93.90
2018-04-16T01:43:30.954Z,93.90
2018-04-16T01:46:04.155Z,93.90
2018-04-16T01:48:37.308Z,93.70
2018-04-16T01:51:10.476Z,93.50
2018-04-16T01:53:44.452Z,93.60
2018-04-16T01:56:17.620Z,93.60
2018-04-16T01:58:50.867Z,93.50
2018-04-16T02:01:24.798Z,93.60
2018-04-16T02:03:58.011Z,93.60
2018-04-16T02:06:32.006Z,93.70
2018-04-16T02:09:05.184Z,93.70
2018-04-16T02:11:38.394Z,93.60
2018-04-16T02:14:11.591Z,93.60
2018-04-16T02:16:44.755Z,93.60
2018-04-16T02:19:17.897Z,93.80
2018-04-16T02:21:51.073Z,93.40
2018-04-16T02:24:24.153Z,93.40
2018-04-16T02:26:57.309Z,93.40
2018-04-16T02:29:30.480Z,93.40
2018-04-16T02:32:04.547Z,93.30
2018-04-16T02:34:37.578Z,93.40
2018-04-16T02:37:11.504Z,93.30
2018-04-16T02:39:44.617Z,93.30
2018-04-16T02:42:18.468Z,93.30
2018-04-16T02:44:52.471Z,93.30
2018-04-16T02:47:25.630Z,93.30
2018-04-16T02:49:59.556Z,93.30
2018-04-16T02:52:32.756Z,93.30
2018-04-16T02:58:06.361Z,93.30
2018-04-16T03:00:39.553Z,93.40
2018-04-16T03:03:12.591Z,93.40
2018-04-16T03:05:45.821Z,93.40
2018-04-16T03:08:18.928Z,93.30
2018-04-16T03:10:52.048Z,93.50
2018-04-16T03:13:25.068Z,93.50
2018-04-16T03:15:58.274Z,93.50
2018-04-16T03:18:31.409Z,93.60
2018-04-16T03:21:04.669Z,93.60
2018-04-16T03:23:37.777Z,93.70
2018-04-16T03:26:11.794Z,93.80
2018-04-16T03:28:45.785Z,93.80
2018-04-16T03:31:19.701Z,94.10
2018-04-16T03:33:53.721Z,94.00
2018-04-16T03:36:27.462Z,94.00
2018-04-16T03:39:00.694Z,94.00
2018-04-16T03:41:33.951Z,94.00
2018-04-16T03:44:07.175Z,94.10
2018-04-16T03:46:40.421Z,94.10
2018-04-16T03:49:13.462Z,94.10
2018-04-16T03:51:42.608Z,94.20
2018-04-16T03:54:10.062Z,94.20
2018-04-16T03:56:37.536Z,94.20
2018-04-16T03:59:04.992Z,94.20
2018-04-16T04:01:32.462Z,94.20
2018-04-16T04:03:59.988Z,94.20
2018-04-16T04:06:27.424Z,94.20
2018-04-16T04:08:55.633Z,94.20
2018-04-16T04:11:23.075Z,94.10
2018-04-16T04:13:50.529Z,94.10
2018-04-16T04:16:17.993Z,94.10
2018-04-16T04:18:45.441Z,94.10
2018-04-16T04:21:12.883Z,94.10
2018-04-16T04:23:52.386Z,94.10
2018-04-16T04:26:32.490Z,94.20
2018-04-16T04:29:11.745Z,94.10
2018-04-16T04:31:39.194Z,94.10
2018-04-16T04:34:09.599Z,94.20
2018-04-16T04:36:43.932Z,94.20
2018-04-16T04:39:11.379Z,94.20
2018-04-16T04:41:38.824Z,94.20
2018-04-16T04:44:06.421Z,94.20
2018-04-16T04:46:33.865Z,94.40
2018-04-16T04:49:02.078Z,94.30
2018-04-16T04:51:29.526Z,94.30
2018-04-16T04:53:56.978Z,94.30
2018-04-16T04:56:25.191Z,94.30
2018-04-16T04:58:52.647Z,94.40
2018-04-16T05:01:20.091Z,94.30
2018-04-16T05:03:48.373Z,94.30
2018-04-16T05:06:15.861Z,94.30
2018-04-16T05:08:43.302Z,94.40
2018-04-16T05:11:10.750Z,94.40
2018-04-16T05:13:38.222Z,94.40
2018-04-16T05:16:05.669Z,94.40
2018-04-16T05:18:33.106Z,94.40
2018-04-16T05:21:00.572Z,94.40
2018-04-16T05:23:28.005Z,94.40
2018-04-16T05:25:56.226Z,94.50
2018-04-16T05:28:23.678Z,94.50
2018-04-16T05:30:51.121Z,94.50
2018-04-16T05:33:18.566Z,94.50
2018-04-16T05:35:46.025Z,94.50
2018-04-16T05:38:13.469Z,94.60
2018-04-16T05:40:40.915Z,94.60
2018-04-16T05:43:08.371Z,94.60
2018-04-16T05:45:35.818Z,94.60
2018-04-16T05:48:03.276Z,94.60
2018-04-16T05:50:30.729Z,94.70
2018-04-16T05:52:58.176Z,94.70
2018-04-16T05:55:25.633Z,94.60
2018-04-16T05:57:53.110Z,94.70
2018-04-16T06:00:20.597Z,94.70
2018-04-16T06:02:48.033Z,94.70
2018-04-16T06:05:15.489Z,94.60
2018-04-16T06:07:42.948Z,94.50
2018-04-16T06:10:10.376Z,94.50
2018-04-16T06:12:37.848Z,94.60
2018-04-16T06:15:05.295Z,94.60
2018-04-16T06:17:32.740Z,94.60
2018-04-16T06:20:00.212Z,94.50
2018-04-16T06:22:27.660Z,94.80
2018-04-16T06:24:55.109Z,94.70
2018-04-16T06:27:22.594Z,94.60
2018-04-16T06:29:50.014Z,94.60
2018-04-16T06:32:17.453Z,94.70
2018-04-16T06:34:45.686Z,94.80
2018-04-16T06:37:13.897Z,94.70
2018-04-16T06:39:42.121Z,94.50
2018-04-16T06:42:09.581Z,94.50
2018-04-16T06:44:37.024Z,94.50
2018-04-16T06:47:04.474Z,94.60
2018-04-16T06:49:31.927Z,94.50
2018-04-16T06:51:59.373Z,94.30
2018-04-16T06:54:26.828Z,94.30
2018-04-16T06:56:54.287Z,94.20
2018-04-16T06:59:21.737Z,94.20
2018-04-16T07:01:49.272Z,94.10
2018-04-16T07:04:16.685Z,94.00
2018-04-16T07:06:44.160Z,94.10
2018-04-16T07:09:11.621Z,94.00
2018-04-16T07:11:39.092Z,93.90
2018-04-16T07:14:07.317Z,93.60
2018-04-16T07:16:34.774Z,93.60
2018-04-16T07:19:02.253Z,93.40
2018-04-16T07:21:29.723Z,93.10
2018-04-16T07:23:57.177Z,93.10
2018-04-16T07:26:24.642Z,93.20
2018-04-16T07:28:52.985Z,93.00
2018-04-16T07:31:20.430Z,93.00
2018-04-16T07:33:47.875Z,92.80
2018-04-16T07:36:15.341Z,92.90
2018-04-16T07:38:42.802Z,93.00
2018-04-16T07:41:10.245Z,92.70
2018-04-16T07:43:37.691Z,92.30
2018-04-16T07:46:05.158Z,92.10
2018-04-16T07:48:32.597Z,92.00
2018-04-16T07:51:00.027Z,92.00
2018-04-16T07:53:28.244Z,91.20
2018-04-16T07:55:55.689Z,91.20
2018-04-16T07:58:23.129Z,91.30
2018-04-16T08:00:50.600Z,91.20
2018-04-16T08:03:18.052Z,91.10
2018-04-16T08:05:45.505Z,91.50
2018-04-16T08:08:12.968Z,91.10
2018-04-16T08:10:40.419Z,90.80
2018-04-16T08:13:07.881Z,91.20
2018-04-16T08:15:35.338Z,90.80
2018-04-16T08:18:02.777Z,90.70
2018-04-16T08:20:30.216Z,90.70
2018-04-16T08:22:57.678Z,90.30
2018-04-16T08:25:25.117Z,90.20
2018-04-16T08:27:53.341Z,90.00
2018-04-16T08:30:20.792Z,90.10
2018-04-16T08:32:48.237Z,90.20
2018-04-16T08:35:15.690Z,90.30
2018-04-16T08:37:43.140Z,90.70
2018-04-16T08:40:10.592Z,90.50
2018-04-16T08:42:38.033Z,90.40
2018-04-16T08:45:05.492Z,90.20
2018-04-16T08:47:33.707Z,88.90
2018-04-16T08:50:01.150Z,88.90
2018-04-16T08:52:28.608Z,88.70
2018-04-16T08:54:56.056Z,89.30
2018-04-16T08:57:23.516Z,90.10
2018-04-16T08:59:50.964Z,87.90
2018-04-16T09:02:24.217Z,89.00
2018-04-16T09:04:52.463Z,88.60
2018-04-16T09:07:19.905Z,88.60
2018-04-16T09:09:47.352Z,87.80
2018-04-16T09:12:14.817Z,85.40
2018-04-16T09:14:42.256Z,86.00
2018-04-16T09:17:09.694Z,83.60
2018-04-16T09:19:37.234Z,81.90
2018-04-16T09:22:05.438Z,78.00
2018-04-16T09:24:32.881Z,78.00
2018-04-16T09:27:00.343Z,78.40
2018-04-16T09:29:27.795Z,78.20
2018-04-16T09:31:55.244Z,79.30
2018-04-16T09:34:22.712Z,79.70
2018-04-16T09:36:50.152Z,77.80
2018-04-16T09:39:17.590Z,77.50
2018-04-16T09:41:45.824Z,78.50
2018-04-16T09:44:13.294Z,78.60
2018-04-16T09:46:40.725Z,79.30
2018-04-16T09:49:08.199Z,80.60
2018-04-16T09:51:35.635Z,82.60
2018-04-16T09:54:03.083Z,83.60
2018-04-16T09:56:30.534Z,84.60
2018-04-16T09:58:57.993Z,84.80
2018-04-16T10:01:25.427Z,85.90
2018-04-16T10:03:52.893Z,86.70
2018-04-16T10:06:20.336Z,86.60
2018-04-16T10:08:47.775Z,86.10
2018-04-16T10:11:15.990Z,83.30
2018-04-16T10:13:43.434Z,83.20
2018-04-16T10:16:10.898Z,81.30
2018-04-16T10:18:38.336Z,78.30
2018-04-16T10:21:05.785Z,75.40
2018-04-16T10:23:34.011Z,67.00
2018-04-16T10:26:01.461Z,67.00
2018-04-16T10:28:28.903Z,61.40
2018-04-16T10:30:56.366Z,60.20
2018-04-16T10:33:23.825Z,62.10
2018-04-16T10:35:51.281Z,60.70
2018-04-16T10:38:19.517Z,62.50
2018-04-16T10:40:46.973Z,62.50
2018-04-16T10:43:14.424Z,61.80
2018-04-16T10:45:41.886Z,60.70
2018-04-16T10:48:09.348Z,57.30
2018-04-16T10:50:36.789Z,54.90
2018-04-16T10:53:04.253Z,52.60
2018-04-16T10:55:31.747Z,53.30
2018-04-16T10:57:59.895Z,57.60
2018-04-16T11:00:27.356Z,57.60
2018-04-16T11:02:54.790Z,57.90
2018-04-16T11:05:22.247Z,58.70
2018-04-16T11:07:49.692Z,56.40
2018-04-16T11:10:17.898Z,53.90
2018-04-16T11:12:45.333Z,53.90
2018-04-16T11:15:12.784Z,55.80
2018-04-16T11:17:40.225Z,56.10
2018-04-16T11:20:08.429Z,56.50
2018-04-16T11:22:35.885Z,56.50
2018-04-16T11:25:04.113Z,51.00
2018-04-16T11:27:32.329Z,51.00
2018-04-16T11:29:59.798Z,51.00
2018-04-16T11:32:27.236Z,50.00
2018-04-16T11:34:54.678Z,51.40
2018-04-16T11:37:22.166Z,51.20
2018-04-16T11:39:49.607Z,51.10
2018-04-16T11:42:17.815Z,48.10
2018-04-16T11:44:45.264Z,48.10
2018-04-16T11:47:12.702Z,47.00
2018-04-16T11:49:40.159Z,48.20
2018-04-16T11:52:07.626Z,48.90
2018-04-16T11:54:35.069Z,49.30
2018-04-16T11:57:02.513Z,47.90
2018-04-16T11:59:29.972Z,46.80
2018-04-16T12:01:57.424Z,48.10
2018-04-16T12:04:24.979Z,47.40
2018-04-16T12:06:52.309Z,48.40
2018-04-16T12:09:19.757Z,48.40
2018-04-16T12:11:47.988Z,50.90
2018-04-16T12:14:15.433Z,50.80
2018-04-16T12:16:42.883Z,51.00
2018-04-16T12:19:10.336Z,50.90
2018-04-16T12:21:37.789Z,50.10
2018-04-16T12:24:05.282Z,49.20
2018-04-16T12:26:32.737Z,49.30
2018-04-16T12:29:00.191Z,48.90
2018-04-16T12:31:27.633Z,48.00
2018-04-16T12:33:55.106Z,49.20
2018-04-16T12:36:22.542Z,50.20
2018-04-16T12:38:49.984Z,49.50
2018-04-16T12:41:17.465Z,46.90
2018-04-16T12:43:44.908Z,47.10
2018-04-16T12:46:12.361Z,47.30
2018-04-16T12:48:39.809Z,48.90
2018-04-16T12:51:07.250Z,48.60
2018-04-16T12:53:34.697Z,48.70
2018-04-16T12:56:02.176Z,48.90
2018-04-16T12:58:29.639Z,49.10
2018-04-16T13:00:57.442Z,50.20
2018-04-16T13:03:25.674Z,50.10
2018-04-16T13:05:53.095Z,50.10
2018-04-16T13:08:20.543Z,50.30
2018-04-16T13:10:48.014Z,49.50
2018-04-16T13:13:16.230Z,45.00
2018-04-16T13:15:43.678Z,45.10
2018-04-16T13:18:11.131Z,44.90
2018-04-16T13:20:38.575Z,46.40
2018-04-16T13:23:06.014Z,46.40
2018-04-16T13:25:33.485Z,47.00
2018-04-16T13:28:00.908Z,48.20
2018-04-16T13:30:28.353Z,46.80
2018-04-16T13:32:56.592Z,48.50
2018-04-16T13:35:24.023Z,48.40
2018-04-16T13:37:51.465Z,47.40
2018-04-16T13:40:18.937Z,47.30
2018-04-16T13:42:46.381Z,47.30
2018-04-16T13:45:13.820Z,46.10
2018-04-16T13:47:41.289Z,46.40
2018-04-16T13:50:08.734Z,43.40
2018-04-16T13:52:36.178Z,43.30
2018-04-16T13:55:03.649Z,42.90
2018-04-16T13:57:31.109Z,45.00
2018-04-16T13:59:58.574Z,45.60
2018-04-16T14:02:26.027Z,46.10
2018-04-16T14:04:53.486Z,43.60
2018-04-16T14:07:20.954Z,43.80
2018-04-16T14:09:48.397Z,45.30
2018-04-16T14:12:15.848Z,44.50
2018-04-16T14:14:43.312Z,44.70
2018-04-16T14:17:10.761Z,44.30
2018-04-16T14:19:38.465Z,44.30
2018-04-16T14:22:05.924Z,44.70
2018-04-16T14:24:33.397Z,43.30
2018-04-16T14:27:01.620Z,44.20
2018-04-16T14:29:29.115Z,44.20
2018-04-16T14:31:56.535Z,43.60
2018-04-16T14:34:23.979Z,44.50
2018-04-16T14:36:51.654Z,44.10
2018-04-16T14:39:19.100Z,41.80
2018-04-16T14:41:46.570Z,42.40
2018-04-16T14:44:14.026Z,41.20
2018-04-16T14:46:41.470Z,40.00
2018-04-16T14:49:09.108Z,39.70
2018-04-16T14:51:36.560Z,40.70
2018-04-16T14:54:04.358Z,40.30
2018-04-16T14:56:31.801Z,38.10
2018-04-16T14:58:59.321Z,34.60
2018-04-16T15:01:26.791Z,31.80
2018-04-16T15:03:54.258Z,29.60
2018-04-16T15:06:21.786Z,27.80
2018-04-16T15:08:49.995Z,25.40
2018-04-16T15:11:17.453Z,25.30
2018-04-16T15:13:44.917Z,24.10
2018-04-16T15:16:13.169Z,23.50
2018-04-16T15:18:40.646Z,23.50
2018-04-16T15:21:08.145Z,23.00
2018-04-16T15:23:36.363Z,23.30
2018-04-16T15:26:03.951Z,23.30
2018-04-16T15:28:31.474Z,23.40
2018-04-16T15:30:58.917Z,22.40
2018-04-16T15:33:26.466Z,22.20
2018-04-16T15:35:53.964Z,21.90
2018-04-16T15:38:21.449Z,21.70
2018-04-16T15:40:48.909Z,21.10
2018-04-16T15:43:16.349Z,21.30
2018-04-16T15:45:43.796Z,22.30
2018-04-16T15:48:11.264Z,23.70
2018-04-16T15:50:38.703Z,25.90
2018-04-16T15:53:06.154Z,28.50
2018-04-16T15:55:33.623Z,29.70
2018-04-16T15:58:01.069Z,30.20
2018-04-16T16:00:28.514Z,32.30
2018-04-16T16:02:55.977Z,33.60
2018-04-16T16:05:23.420Z,34.20
2018-04-16T16:07:50.873Z,36.00
2018-04-16T16:10:18.346Z,37.60
2018-04-16T16:12:45.804Z,38.10
2018-04-16T16:15:13.296Z,38.70
2018-04-16T16:17:40.701Z,39.50
2018-04-16T16:20:08.157Z,41.50
2018-04-16T16:22:35.609Z,43.50
2018-04-16T16:25:03.065Z,44.60
2018-04-16T16:27:30.512Z,45.60
2018-04-16T16:29:57.948Z,44.90
2018-04-16T16:32:25.435Z,44.30
2018-04-16T16:34:52.908Z,45.80
2018-04-16T16:37:20.337Z,47.00
2018-04-16T16:39:47.797Z,48.60
2018-04-16T16:42:15.245Z,48.30
2018-04-16T16:44:42.691Z,49.00
2018-04-16T16:47:10.162Z,49.10
2018-04-16T16:49:37.629Z,49.50
2018-04-16T16:52:05.081Z,50.50
2018-04-16T16:54:32.558Z,50.60
2018-04-16T16:57:00.220Z,50.90
2018-04-16T16:59:28.682Z,51.40
2018-04-16T17:01:56.645Z,51.40
2018-04-16T17:04:24.314Z,51.20
2018-04-16T17:06:52.014Z,51.30
2018-04-16T17:09:19.502Z,51.50
2018-04-16T17:11:46.933Z,51.70
2018-04-16T17:14:15.153Z,52.40
2018-04-16T17:16:42.639Z,52.40
2018-04-16T17:19:10.089Z,53.10
2018-04-16T17:21:37.540Z,53.30
2018-04-16T17:24:04.996Z,54.30
2018-04-16T17:26:32.449Z,55.40
2018-04-16T17:29:00.172Z,56.20
2018-04-16T17:31:27.635Z,57.20
2018-04-16T17:33:55.096Z,58.30
2018-04-16T17:36:22.542Z,59.50
2018-04-16T17:38:50.002Z,60.30
2018-04-16T17:41:17.454Z,60.30
2018-04-16T17:43:44.893Z,60.50
2018-04-16T17:46:12.359Z,60.30
2018-04-16T17:48:39.809Z,60.90
2018-04-16T17:51:07.257Z,61.00
2018-04-16T17:53:34.948Z,61.80
2018-04-16T17:56:03.118Z,62.70
2018-04-16T17:58:30.568Z,62.70
2018-04-16T18:00:58.085Z,63.40
2018-04-16T18:03:26.349Z,65.20
2018-04-16T18:05:53.788Z,65.00
2018-04-16T18:08:21.237Z,66.20
2018-04-16T18:10:48.739Z,65.60
2018-04-16T18:13:16.960Z,66.10
2018-04-16T18:15:44.423Z,66.10
2018-04-16T18:18:11.879Z,66.30
2018-04-16T18:20:39.339Z,66.50
2018-04-16T18:23:06.802Z,66.90
2018-04-16T18:25:34.245Z,67.50
2018-04-16T18:28:01.686Z,67.90
2018-04-16T18:30:37.244Z,68.50
2018-04-16T18:33:04.699Z,69.00
2018-04-16T18:35:32.179Z,68.80
2018-04-16T18:37:59.625Z,69.50
2018-04-16T18:40:27.072Z,70.20
2018-04-16T18:42:54.541Z,69.70
2018-04-16T18:45:21.993Z,70.10
2018-04-16T18:47:49.482Z,70.80
2018-04-16T18:50:17.706Z,72.10
2018-04-16T18:52:45.178Z,72.10
2018-04-16T18:55:12.670Z,72.70
2018-04-16T18:57:40.172Z,73.50
2018-04-16T19:00:07.641Z,73.90
2018-04-16T19:02:35.090Z,74.30
2018-04-16T19:05:02.531Z,74.70
2018-04-16T19:07:30.049Z,75.10
2018-04-16T19:09:57.495Z,75.30
2018-04-16T19:12:25.721Z,76.00
2018-04-16T19:14:53.313Z,75.90
2018-04-16T19:17:20.754Z,76.20
2018-04-16T19:19:48.198Z,76.70
2018-04-16T19:22:15.678Z,77.00
2018-04-16T19:24:43.125Z,77.60
2018-04-16T19:27:16.357Z,77.90
2018-04-16T19:29:43.798Z,78.00
2018-04-16T19:32:12.121Z,78.70
2018-04-16T19:34:45.192Z,78.70
2018-04-16T19:37:12.670Z,79.00
2018-04-16T19:39:40.134Z,79.70
2018-04-16T19:42:13.321Z,79.80
2018-04-16T19:44:40.808Z,79.80
2018-04-16T19:47:08.268Z,79.90
2018-04-16T19:49:46.419Z,80.50
2018-04-16T19:52:13.864Z,80.50
2018-04-16T19:54:41.310Z,80.60
2018-04-16T19:57:14.331Z,81.00
2018-04-16T19:59:41.774Z,81.10
2018-04-16T20:02:14.829Z,81.40
2018-04-16T20:04:43.146Z,81.50
2018-04-16T20:07:10.661Z,81.40
2018-04-16T20:09:38.931Z,81.70
2018-04-16T20:12:07.142Z,81.80
2018-04-16T20:14:34.583Z,81.80
2018-04-16T20:17:02.090Z,81.80
2018-04-16T20:19:29.529Z,81.70
2018-04-16T20:21:57.043Z,81.90
2018-04-16T20:24:24.523Z,82.00
2018-04-16T20:26:51.968Z,82.10
2018-04-16T20:29:19.423Z,81.80
2018-04-16T20:31:46.923Z,81.70
2018-04-16T20:34:14.426Z,81.70
2018-04-16T20:36:41.872Z,81.70
2018-04-16T20:39:10.106Z,81.60
2018-04-16T20:41:37.542Z,81.60
2018-04-16T20:44:05.012Z,81.50
2018-04-16T20:46:32.477Z,81.10
2018-04-16T20:48:59.926Z,81.20
2018-04-16T20:51:27.361Z,81.20
2018-04-16T20:53:54.839Z,81.40
2018-04-16T20:56:22.290Z,81.40
2018-04-16T20:58:49.738Z,81.60
2018-04-16T21:01:17.643Z,81.30
2018-04-16T21:03:45.847Z,81.40
2018-04-16T21:06:13.293Z,81.40
2018-04-16T21:08:40.801Z,81.40
2018-04-16T21:11:08.249Z,80.90
2018-04-16T21:13:35.697Z,80.90
2018-04-16T21:16:03.165Z,81.00
2018-04-16T21:18:30.610Z,81.10
2018-04-16T21:20:58.081Z,81.20
2018-04-16T21:23:25.532Z,81.60
2018-04-16T21:25:53.005Z,81.60
2018-04-16T21:28:20.446Z,81.40
2018-04-16T21:30:47.900Z,81.40
2018-04-16T21:33:15.429Z,81.50
2018-04-16T21:35:42.886Z,81.50
2018-04-16T21:38:10.340Z,81.20
2018-04-16T21:40:37.801Z,81.20
2018-04-16T21:43:05.248Z,81.20
2018-04-16T21:45:32.689Z,81.20
2018-04-16T21:48:00.168Z,80.90
2018-04-16T21:50:27.617Z,81.30
2018-04-16T21:52:55.047Z,80.90
2018-04-16T21:55:22.509Z,80.80
2018-04-16T21:57:50.003Z,80.90
2018-04-16T22:00:17.447Z,81.00
2018-04-16T22:02:44.914Z,81.20
2018-04-16T22:05:12.361Z,81.30
2018-04-16T22:07:39.811Z,81.60
2018-04-16T22:10:07.285Z,81.80
2018-04-16T22:12:34.743Z,82.10
2018-04-16T22:15:02.189Z,82.10
2018-04-16T22:17:29.658Z,82.20
2018-04-16T22:19:57.100Z,82.20
2018-04-16T22:22:24.583Z,82.10
2018-04-16T22:24:52.024Z,81.90
2018-04-16T22:27:19.473Z,81.80
2018-04-16T22:29:46.955Z,81.80
2018-04-16T22:32:14.393Z,81.90
2018-04-16T22:34:41.901Z,82.00
2018-04-16T22:37:09.378Z,82.20
2018-04-16T22:39:36.826Z,82.50
2018-04-16T22:42:04.281Z,82.70
2018-04-16T22:44:31.751Z,82.50
2018-04-16T22:46:59.199Z,82.50
2018-04-16T22:49:26.666Z,82.70
2018-04-16T22:51:54.123Z,83.10
2018-04-16T22:54:21.571Z,83.60
2018-04-16T22:56:49.042Z,82.80
2018-04-16T22:59:16.494Z,82.80
2018-04-16T23:01:43.945Z,82.90
2018-04-16T23:04:11.418Z,82.90
2018-04-16T23:06:38.857Z,82.80
2018-04-16T23:09:06.297Z,82.70
2018-04-16T23:11:33.852Z,82.50
2018-04-16T23:14:01.309Z,82.60
2018-04-16T23:16:28.746Z,82.30
2018-04-16T23:18:56.274Z,82.50
2018-04-16T23:21:23.696Z,82.40
2018-04-16T23:23:51.187Z,82.30
2018-04-16T23:26:18.635Z,82.20
2018-04-16T23:28:46.107Z,82.20
2018-04-16T23:31:14.327Z,82.40
2018-04-16T23:33:41.770Z,83.00
2018-04-16T23:36:09.263Z,82.50
2018-04-16T23:38:36.711Z,82.60
2018-04-16T23:41:04.162Z,82.90
2018-04-16T23:43:31.605Z,82.60
2018-04-16T23:45:59.073Z,82.60
2018-04-16T23:48:26.519Z,82.50
2018-04-16T23:50:53.976Z,82.50
2018-04-16T23:53:21.429Z,82.40
2018-04-16T23:55:48.877Z,82.30
2018-04-16T23:58:16.329Z,82.30
